sensor_id;sensor_type;location;lat;lon;timestamp;P1;durP1;ratioP1;P2;durP2;ratioP2
12852;SDS011;6495;51.808;7.478;2023-05-07T00:01:40;6.82;;;4.60;;
12852;SDS011;6495;51.808;7.478;2023-05-07T00:04:09;7.07;;;5.40;;
12852;SDS011;6495;51.808;7.478;2023-05-07T00:06:37;5.68;;;5.05;;
12852;SDS011;6495;51.808;7.478;2023-05-07T00:09:06;5.35;;;4.68;;
12852;SDS011;6495;51.808;7.478;2023-05-07T00:11:34;6.88;;;4.85;;
12852;SDS011;6495;51.808;7.478;2023-05-07T00:14:02;7.15;;;5.45;;
12852;SDS011;6495;51.808;7.478;2023-05-07T00:16:30;8.70;;;5.82;;
12852;SDS011;6495;51.808;7.478;2023-05-07T00:19:00;8.52;;;5.10;;
12852;SDS011;6495;51.808;7.478;2023-05-07T00:21:28;5.88;;;4.93;;
12852;SDS011;6495;51.808;7.478;2023-05-07T00:23:57;5.30;;;4.72;;
12852;SDS011;6495;51.808;7.478;2023-05-07T00:26:25;6.40;;;5.10;;
12852;SDS011;6495;51.808;7.478;2023-05-07T00:28:53;5.90;;;4.70;;
12852;SDS011;6495;51.808;7.478;2023-05-07T00:31:21;5.88;;;4.32;;
12852;SDS011;6495;51.808;7.478;2023-05-07T00:33:49;6.75;;;4.97;;
12852;SDS011;6495;51.808;7.478;2023-05-07T00:36:19;4.88;;;4.22;;
12852;SDS011;6495;51.808;7.478;2023-05-07T00:38:47;6.40;;;4.90;;
12852;SDS011;6495;51.808;7.478;2023-05-07T00:41:16;8.68;;;5.47;;
12852;SDS011;6495;51.808;7.478;2023-05-07T00:43:44;6.60;;;5.28;;
12852;SDS011;6495;51.808;7.478;2023-05-07T00:46:12;6.68;;;4.85;;
12852;SDS011;6495;51.808;7.478;2023-05-07T00:48:42;5.93;;;5.18;;
12852;SDS011;6495;51.808;7.478;2023-05-07T00:51:10;6.82;;;4.85;;
12852;SDS011;6495;51.808;7.478;2023-05-07T00:53:40;5.65;;;4.20;;
12852;SDS011;6495;51.808;7.478;2023-05-07T00:56:09;5.88;;;5.07;;
12852;SDS011;6495;51.808;7.478;2023-05-07T00:58:38;5.38;;;4.85;;
12852;SDS011;6495;51.808;7.478;2023-05-07T01:01:06;5.10;;;4.57;;
12852;SDS011;6495;51.808;7.478;2023-05-07T01:03:34;5.40;;;4.90;;
12852;SDS011;6495;51.808;7.478;2023-05-07T01:06:03;6.07;;;4.85;;
12852;SDS011;6495;51.808;7.478;2023-05-07T01:08:34;6.65;;;5.00;;
12852;SDS011;6495;51.808;7.478;2023-05-07T01:11:07;5.95;;;4.97;;
12852;SDS011;6495;51.808;7.478;2023-05-07T01:13:37;5.53;;;4.95;;
12852;SDS011;6495;51.808;7.478;2023-05-07T01:16:08;6.68;;;4.95;;
12852;SDS011;6495;51.808;7.478;2023-05-07T01:18:37;5.35;;;4.57;;
12852;SDS011;6495;51.808;7.478;2023-05-07T01:21:10;5.50;;;4.60;;
12852;SDS011;6495;51.808;7.478;2023-05-07T01:23:40;6.75;;;4.80;;
12852;SDS011;6495;51.808;7.478;2023-05-07T01:26:09;8.27;;;4.28;;
12852;SDS011;6495;51.808;7.478;2023-05-07T01:28:38;6.43;;;5.03;;
12852;SDS011;6495;51.808;7.478;2023-05-07T01:31:06;6.30;;;4.72;;
12852;SDS011;6495;51.808;7.478;2023-05-07T01:33:36;6.13;;;4.40;;
12852;SDS011;6495;51.808;7.478;2023-05-07T01:36:08;5.13;;;4.18;;
12852;SDS011;6495;51.808;7.478;2023-05-07T01:38:39;5.63;;;4.40;;
12852;SDS011;6495;51.808;7.478;2023-05-07T01:41:09;6.97;;;4.53;;
12852;SDS011;6495;51.808;7.478;2023-05-07T01:43:39;6.35;;;4.32;;
12852;SDS011;6495;51.808;7.478;2023-05-07T01:46:09;5.20;;;4.68;;
12852;SDS011;6495;51.808;7.478;2023-05-07T01:48:39;5.90;;;4.45;;
12852;SDS011;6495;51.808;7.478;2023-05-07T01:51:12;5.45;;;4.43;;
12852;SDS011;6495;51.808;7.478;2023-05-07T01:53:41;5.00;;;3.65;;
12852;SDS011;6495;51.808;7.478;2023-05-07T01:56:10;4.22;;;3.83;;
12852;SDS011;6495;51.808;7.478;2023-05-07T01:58:40;4.68;;;4.28;;
12852;SDS011;6495;51.808;7.478;2023-05-07T02:01:08;4.97;;;4.18;;
12852;SDS011;6495;51.808;7.478;2023-05-07T02:03:37;7.40;;;4.38;;
12852;SDS011;6495;51.808;7.478;2023-05-07T02:06:11;8.43;;;4.55;;
12852;SDS011;6495;51.808;7.478;2023-05-07T02:08:39;6.20;;;4.45;;
12852;SDS011;6495;51.808;7.478;2023-05-07T02:11:10;6.05;;;4.07;;
12852;SDS011;6495;51.808;7.478;2023-05-07T02:13:39;5.40;;;4.75;;
12852;SDS011;6495;51.808;7.478;2023-05-07T02:16:07;6.38;;;4.10;;
12852;SDS011;6495;51.808;7.478;2023-05-07T02:18:35;5.50;;;4.80;;
12852;SDS011;6495;51.808;7.478;2023-05-07T02:21:03;5.90;;;4.43;;
12852;SDS011;6495;51.808;7.478;2023-05-07T02:23:32;13.00;;;4.97;;
12852;SDS011;6495;51.808;7.478;2023-05-07T02:26:03;5.63;;;4.70;;
12852;SDS011;6495;51.808;7.478;2023-05-07T02:28:32;7.38;;;4.28;;
12852;SDS011;6495;51.808;7.478;2023-05-07T02:31:03;6.65;;;4.63;;
12852;SDS011;6495;51.808;7.478;2023-05-07T02:33:32;5.78;;;4.93;;
12852;SDS011;6495;51.808;7.478;2023-05-07T02:36:06;7.03;;;4.97;;
12852;SDS011;6495;51.808;7.478;2023-05-07T02:38:39;7.78;;;5.00;;
12852;SDS011;6495;51.808;7.478;2023-05-07T02:41:09;7.28;;;4.50;;
12852;SDS011;6495;51.808;7.478;2023-05-07T02:43:37;5.75;;;5.10;;
12852;SDS011;6495;51.808;7.478;2023-05-07T02:46:07;6.53;;;4.95;;
12852;SDS011;6495;51.808;7.478;2023-05-07T02:48:40;6.57;;;4.90;;
12852;SDS011;6495;51.808;7.478;2023-05-07T02:51:09;5.78;;;4.88;;
12852;SDS011;6495;51.808;7.478;2023-05-07T02:53:39;7.25;;;4.85;;
12852;SDS011;6495;51.808;7.478;2023-05-07T02:56:07;6.18;;;4.88;;
12852;SDS011;6495;51.808;7.478;2023-05-07T02:58:37;8.77;;;4.93;;
12852;SDS011;6495;51.808;7.478;2023-05-07T03:05:38;7.07;;;5.43;;
12852;SDS011;6495;51.808;7.478;2023-05-07T03:08:08;5.45;;;4.68;;
12852;SDS011;6495;51.808;7.478;2023-05-07T03:10:37;7.95;;;5.90;;
12852;SDS011;6495;51.808;7.478;2023-05-07T03:13:07;9.20;;;5.22;;
12852;SDS011;6495;51.808;7.478;2023-05-07T03:15:35;6.80;;;5.65;;
12852;SDS011;6495;51.808;7.478;2023-05-07T03:18:03;6.40;;;4.90;;
12852;SDS011;6495;51.808;7.478;2023-05-07T03:20:32;6.40;;;5.32;;
12852;SDS011;6495;51.808;7.478;2023-05-07T03:23:00;7.20;;;5.45;;
12852;SDS011;6495;51.808;7.478;2023-05-07T03:25:28;6.47;;;5.30;;
12852;SDS011;6495;51.808;7.478;2023-05-07T03:27:57;7.40;;;5.90;;
12852;SDS011;6495;51.808;7.478;2023-05-07T03:30:35;5.57;;;4.82;;
12852;SDS011;6495;51.808;7.478;2023-05-07T03:33:03;9.27;;;5.22;;
12852;SDS011;6495;51.808;7.478;2023-05-07T03:35:31;7.03;;;5.40;;
12852;SDS011;6495;51.808;7.478;2023-05-07T03:38:00;7.53;;;5.55;;
12852;SDS011;6495;51.808;7.478;2023-05-07T03:40:32;7.38;;;5.35;;
12852;SDS011;6495;51.808;7.478;2023-05-07T03:43:02;6.88;;;5.75;;
12852;SDS011;6495;51.808;7.478;2023-05-07T03:45:32;8.15;;;6.00;;
12852;SDS011;6495;51.808;7.478;2023-05-07T03:48:09;7.40;;;5.65;;
12852;SDS011;6495;51.808;7.478;2023-05-07T03:50:37;6.88;;;5.53;;
12852;SDS011;6495;51.808;7.478;2023-05-07T03:53:06;7.40;;;5.60;;
12852;SDS011;6495;51.808;7.478;2023-05-07T03:55:37;7.50;;;5.25;;
12852;SDS011;6495;51.808;7.478;2023-05-07T03:58:05;8.05;;;6.30;;
12852;SDS011;6495;51.808;7.478;2023-05-07T04:00:34;8.20;;;6.03;;
12852;SDS011;6495;51.808;7.478;2023-05-07T04:03:15;8.52;;;5.53;;
12852;SDS011;6495;51.808;7.478;2023-05-07T04:05:43;8.40;;;6.28;;
12852;SDS011;6495;51.808;7.478;2023-05-07T04:08:11;8.63;;;6.38;;
12852;SDS011;6495;51.808;7.478;2023-05-07T04:10:44;7.45;;;6.15;;
12852;SDS011;6495;51.808;7.478;2023-05-07T04:13:13;10.95;;;6.60;;
12852;SDS011;6495;51.808;7.478;2023-05-07T04:15:41;7.57;;;6.00;;
12852;SDS011;6495;51.808;7.478;2023-05-07T04:18:12;11.65;;;7.38;;
12852;SDS011;6495;51.808;7.478;2023-05-07T04:20:44;11.30;;;7.25;;
12852;SDS011;6495;51.808;7.478;2023-05-07T04:23:13;10.45;;;6.75;;
12852;SDS011;6495;51.808;7.478;2023-05-07T04:25:42;8.25;;;6.97;;
12852;SDS011;6495;51.808;7.478;2023-05-07T04:28:25;8.43;;;6.38;;
12852;SDS011;6495;51.808;7.478;2023-05-07T04:30:53;9.23;;;7.22;;
12852;SDS011;6495;51.808;7.478;2023-05-07T04:33:22;11.25;;;7.88;;
12852;SDS011;6495;51.808;7.478;2023-05-07T04:35:52;12.57;;;8.35;;
12852;SDS011;6495;51.808;7.478;2023-05-07T04:38:20;10.35;;;7.30;;
12852;SDS011;6495;51.808;7.478;2023-05-07T04:40:51;15.20;;;7.57;;
12852;SDS011;6495;51.808;7.478;2023-05-07T04:43:23;11.32;;;7.53;;
12852;SDS011;6495;51.808;7.478;2023-05-07T04:45:51;10.73;;;7.68;;
12852;SDS011;6495;51.808;7.478;2023-05-07T04:48:22;12.02;;;8.27;;
12852;SDS011;6495;51.808;7.478;2023-05-07T04:50:53;10.77;;;9.05;;
12852;SDS011;6495;51.808;7.478;2023-05-07T04:53:22;10.90;;;8.18;;
12852;SDS011;6495;51.808;7.478;2023-05-07T04:55:54;12.32;;;8.77;;
12852;SDS011;6495;51.808;7.478;2023-05-07T04:58:29;12.57;;;8.93;;
12852;SDS011;6495;51.808;7.478;2023-05-07T05:00:58;13.48;;;9.02;;
12852;SDS011;6495;51.808;7.478;2023-05-07T05:03:27;11.63;;;9.15;;
12852;SDS011;6495;51.808;7.478;2023-05-07T05:05:57;14.80;;;9.60;;
12852;SDS011;6495;51.808;7.478;2023-05-07T05:08:30;13.52;;;9.88;;
12852;SDS011;6495;51.808;7.478;2023-05-07T05:11:00;13.05;;;9.25;;
12852;SDS011;6495;51.808;7.478;2023-05-07T05:13:31;14.60;;;9.43;;
12852;SDS011;6495;51.808;7.478;2023-05-07T05:16:02;14.65;;;9.35;;
12852;SDS011;6495;51.808;7.478;2023-05-07T05:18:32;14.52;;;9.80;;
12852;SDS011;6495;51.808;7.478;2023-05-07T05:21:02;13.65;;;10.45;;
12852;SDS011;6495;51.808;7.478;2023-05-07T05:23:31;15.15;;;11.15;;
12852;SDS011;6495;51.808;7.478;2023-05-07T05:25:59;15.00;;;10.75;;
12852;SDS011;6495;51.808;7.478;2023-05-07T05:28:30;15.07;;;9.95;;
12852;SDS011;6495;51.808;7.478;2023-05-07T05:30:59;16.92;;;10.88;;
12852;SDS011;6495;51.808;7.478;2023-05-07T05:33:31;17.83;;;11.82;;
12852;SDS011;6495;51.808;7.478;2023-05-07T05:36:04;16.15;;;11.48;;
12852;SDS011;6495;51.808;7.478;2023-05-07T05:38:35;18.33;;;11.65;;
12852;SDS011;6495;51.808;7.478;2023-05-07T05:41:04;19.00;;;11.88;;
12852;SDS011;6495;51.808;7.478;2023-05-07T05:43:34;17.33;;;11.05;;
12852;SDS011;6495;51.808;7.478;2023-05-07T05:46:02;18.00;;;11.77;;
12852;SDS011;6495;51.808;7.478;2023-05-07T05:48:30;17.45;;;11.50;;
12852;SDS011;6495;51.808;7.478;2023-05-07T05:51:00;18.25;;;12.82;;
12852;SDS011;6495;51.808;7.478;2023-05-07T05:53:30;19.73;;;12.13;;
12852;SDS011;6495;51.808;7.478;2023-05-07T05:55:58;19.45;;;12.02;;
12852;SDS011;6495;51.808;7.478;2023-05-07T05:58:28;22.02;;;13.32;;
12852;SDS011;6495;51.808;7.478;2023-05-07T06:01:00;18.33;;;11.73;;
12852;SDS011;6495;51.808;7.478;2023-05-07T06:03:30;16.45;;;11.48;;
12852;SDS011;6495;51.808;7.478;2023-05-07T06:06:01;18.23;;;12.77;;
12852;SDS011;6495;51.808;7.478;2023-05-07T06:08:31;16.58;;;11.52;;
12852;SDS011;6495;51.808;7.478;2023-05-07T06:11:00;18.30;;;12.40;;
12852;SDS011;6495;51.808;7.478;2023-05-07T06:13:32;16.70;;;12.60;;
12852;SDS011;6495;51.808;7.478;2023-05-07T06:16:00;16.88;;;11.75;;
12852;SDS011;6495;51.808;7.478;2023-05-07T06:18:29;16.05;;;11.65;;
12852;SDS011;6495;51.808;7.478;2023-05-07T06:20:57;18.10;;;11.43;;
12852;SDS011;6495;51.808;7.478;2023-05-07T06:23:29;18.17;;;12.05;;
12852;SDS011;6495;51.808;7.478;2023-05-07T06:26:00;17.58;;;12.32;;
12852;SDS011;6495;51.808;7.478;2023-05-07T06:28:33;17.63;;;12.02;;
12852;SDS011;6495;51.808;7.478;2023-05-07T06:31:12;16.95;;;10.88;;
12852;SDS011;6495;51.808;7.478;2023-05-07T06:33:46;19.38;;;12.85;;
12852;SDS011;6495;51.808;7.478;2023-05-07T06:36:15;19.65;;;12.00;;
12852;SDS011;6495;51.808;7.478;2023-05-07T06:38:44;19.40;;;12.38;;
12852;SDS011;6495;51.808;7.478;2023-05-07T06:41:15;17.95;;;12.75;;
12852;SDS011;6495;51.808;7.478;2023-05-07T06:43:43;21.60;;;11.77;;
12852;SDS011;6495;51.808;7.478;2023-05-07T06:46:38;16.88;;;11.38;;
12852;SDS011;6495;51.808;7.478;2023-05-07T06:49:08;18.88;;;12.77;;
12852;SDS011;6495;51.808;7.478;2023-05-07T06:51:36;16.48;;;12.15;;
12852;SDS011;6495;51.808;7.478;2023-05-07T06:54:05;18.63;;;12.05;;
12852;SDS011;6495;51.808;7.478;2023-05-07T06:56:37;16.58;;;11.60;;
12852;SDS011;6495;51.808;7.478;2023-05-07T06:59:05;20.25;;;11.52;;
12852;SDS011;6495;51.808;7.478;2023-05-07T07:01:38;17.98;;;11.65;;
12852;SDS011;6495;51.808;7.478;2023-05-07T07:04:08;16.52;;;11.73;;
12852;SDS011;6495;51.808;7.478;2023-05-07T07:06:38;14.68;;;10.60;;
12852;SDS011;6495;51.808;7.478;2023-05-07T07:09:09;17.23;;;11.38;;
12852;SDS011;6495;51.808;7.478;2023-05-07T07:11:40;18.88;;;11.68;;
12852;SDS011;6495;51.808;7.478;2023-05-07T07:14:08;17.30;;;11.82;;
12852;SDS011;6495;51.808;7.478;2023-05-07T07:16:51;15.20;;;11.70;;
12852;SDS011;6495;51.808;7.478;2023-05-07T07:19:33;18.23;;;11.73;;
12852;SDS011;6495;51.808;7.478;2023-05-07T07:22:02;20.50;;;11.77;;
12852;SDS011;6495;51.808;7.478;2023-05-07T07:24:32;19.27;;;12.05;;
12852;SDS011;6495;51.808;7.478;2023-05-07T07:30:28;16.60;;;10.90;;
12852;SDS011;6495;51.808;7.478;2023-05-07T07:32:56;21.60;;;12.25;;
12852;SDS011;6495;51.808;7.478;2023-05-07T07:35:33;19.85;;;13.38;;
12852;SDS011;6495;51.808;7.478;2023-05-07T07:38:04;16.05;;;11.68;;
12852;SDS011;6495;51.808;7.478;2023-05-07T07:40:34;15.90;;;11.05;;
12852;SDS011;6495;51.808;7.478;2023-05-07T07:43:13;17.25;;;11.60;;
12852;SDS011;6495;51.808;7.478;2023-05-07T07:45:42;18.77;;;11.77;;
12852;SDS011;6495;51.808;7.478;2023-05-07T07:48:12;17.98;;;11.93;;
12852;SDS011;6495;51.808;7.478;2023-05-07T07:50:40;16.55;;;11.35;;
12852;SDS011;6495;51.808;7.478;2023-05-07T07:53:14;20.13;;;12.55;;
12852;SDS011;6495;51.808;7.478;2023-05-07T07:55:43;16.35;;;11.73;;
12852;SDS011;6495;51.808;7.478;2023-05-07T07:58:20;16.83;;;11.70;;
12852;SDS011;6495;51.808;7.478;2023-05-07T08:00:50;19.80;;;11.27;;
12852;SDS011;6495;51.808;7.478;2023-05-07T08:03:19;22.48;;;12.63;;
12852;SDS011;6495;51.808;7.478;2023-05-07T08:05:51;18.25;;;11.90;;
12852;SDS011;6495;51.808;7.478;2023-05-07T08:08:20;20.83;;;12.57;;
12852;SDS011;6495;51.808;7.478;2023-05-07T08:10:49;17.98;;;12.23;;
12852;SDS011;6495;51.808;7.478;2023-05-07T08:13:26;19.20;;;12.27;;
12852;SDS011;6495;51.808;7.478;2023-05-07T08:15:55;21.33;;;12.10;;
12852;SDS011;6495;51.808;7.478;2023-05-07T08:18:24;19.05;;;12.48;;
12852;SDS011;6495;51.808;7.478;2023-05-07T08:20:58;18.65;;;11.63;;
12852;SDS011;6495;51.808;7.478;2023-05-07T08:23:27;20.05;;;12.27;;
12852;SDS011;6495;51.808;7.478;2023-05-07T08:25:55;22.58;;;14.95;;
12852;SDS011;6495;51.808;7.478;2023-05-07T08:28:24;18.10;;;12.15;;
12852;SDS011;6495;51.808;7.478;2023-05-07T08:30:54;19.02;;;12.50;;
12852;SDS011;6495;51.808;7.478;2023-05-07T08:33:29;19.20;;;13.23;;
12852;SDS011;6495;51.808;7.478;2023-05-07T08:35:59;18.48;;;12.60;;
12852;SDS011;6495;51.808;7.478;2023-05-07T08:38:28;19.08;;;12.30;;
12852;SDS011;6495;51.808;7.478;2023-05-07T08:40:57;21.48;;;12.65;;
12852;SDS011;6495;51.808;7.478;2023-05-07T08:43:28;21.65;;;12.75;;
12852;SDS011;6495;51.808;7.478;2023-05-07T08:46:02;20.73;;;13.70;;
12852;SDS011;6495;51.808;7.478;2023-05-07T08:48:38;19.17;;;12.77;;
12852;SDS011;6495;51.808;7.478;2023-05-07T08:51:12;21.15;;;13.73;;
12852;SDS011;6495;51.808;7.478;2023-05-07T08:53:42;20.75;;;12.57;;
12852;SDS011;6495;51.808;7.478;2023-05-07T08:56:16;19.88;;;12.18;;
12852;SDS011;6495;51.808;7.478;2023-05-07T08:58:50;20.65;;;13.35;;
12852;SDS011;6495;51.808;7.478;2023-05-07T09:01:23;18.58;;;12.80;;
12852;SDS011;6495;51.808;7.478;2023-05-07T09:03:59;19.52;;;12.73;;
12852;SDS011;6495;51.808;7.478;2023-05-07T09:06:29;17.02;;;12.60;;
12852;SDS011;6495;51.808;7.478;2023-05-07T09:08:58;15.88;;;11.32;;
12852;SDS011;6495;51.808;7.478;2023-05-07T09:11:30;21.13;;;13.40;;
12852;SDS011;6495;51.808;7.478;2023-05-07T09:14:01;17.85;;;12.43;;
12852;SDS011;6495;51.808;7.478;2023-05-07T09:16:36;22.33;;;12.40;;
12852;SDS011;6495;51.808;7.478;2023-05-07T09:19:05;18.52;;;12.48;;
12852;SDS011;6495;51.808;7.478;2023-05-07T09:21:34;20.88;;;12.63;;
12852;SDS011;6495;51.808;7.478;2023-05-07T09:24:07;17.13;;;12.50;;
12852;SDS011;6495;51.808;7.478;2023-05-07T09:26:39;19.98;;;11.35;;
12852;SDS011;6495;51.808;7.478;2023-05-07T09:29:17;17.40;;;11.93;;
12852;SDS011;6495;51.808;7.478;2023-05-07T09:31:46;19.50;;;12.38;;
12852;SDS011;6495;51.808;7.478;2023-05-07T09:34:20;18.48;;;11.85;;
12852;SDS011;6495;51.808;7.478;2023-05-07T09:37:00;18.15;;;11.73;;
12852;SDS011;6495;51.808;7.478;2023-05-07T09:39:39;20.35;;;12.65;;
12852;SDS011;6495;51.808;7.478;2023-05-07T09:42:39;19.30;;;11.52;;
12852;SDS011;6495;51.808;7.478;2023-05-07T09:45:09;16.02;;;10.10;;
12852;SDS011;6495;51.808;7.478;2023-05-07T09:47:41;18.95;;;11.93;;
12852;SDS011;6495;51.808;7.478;2023-05-07T09:50:17;21.83;;;12.15;;
12852;SDS011;6495;51.808;7.478;2023-05-07T09:53:03;18.25;;;12.30;;
12852;SDS011;6495;51.808;7.478;2023-05-07T09:55:33;15.60;;;10.80;;
12852;SDS011;6495;51.808;7.478;2023-05-07T09:58:03;18.55;;;11.85;;
12852;SDS011;6495;51.808;7.478;2023-05-07T10:00:37;18.23;;;11.75;;
12852;SDS011;6495;51.808;7.478;2023-05-07T10:03:13;15.80;;;11.05;;
12852;SDS011;6495;51.808;7.478;2023-05-07T10:05:51;18.52;;;12.45;;
12852;SDS011;6495;51.808;7.478;2023-05-07T10:08:22;19.27;;;11.73;;
12852;SDS011;6495;51.808;7.478;2023-05-07T10:11:06;14.07;;;10.63;;
12852;SDS011;6495;51.808;7.478;2023-05-07T10:13:36;15.85;;;10.50;;
12852;SDS011;6495;51.808;7.478;2023-05-07T10:16:09;16.80;;;10.77;;
12852;SDS011;6495;51.808;7.478;2023-05-07T10:18:43;14.50;;;10.43;;
12852;SDS011;6495;51.808;7.478;2023-05-07T10:21:18;15.60;;;10.30;;
12852;SDS011;6495;51.808;7.478;2023-05-07T10:23:53;16.60;;;10.55;;
12852;SDS011;6495;51.808;7.478;2023-05-07T10:29:45;15.68;;;9.70;;
12852;SDS011;6495;51.808;7.478;2023-05-07T10:32:42;15.73;;;11.88;;
12852;SDS011;6495;51.808;7.478;2023-05-07T10:35:41;15.48;;;10.10;;
12852;SDS011;6495;51.808;7.478;2023-05-07T10:38:13;16.50;;;10.68;;
12852;SDS011;6495;51.808;7.478;2023-05-07T10:40:50;13.32;;;10.20;;
12852;SDS011;6495;51.808;7.478;2023-05-07T10:43:46;15.95;;;9.90;;
12852;SDS011;6495;51.808;7.478;2023-05-07T10:46:22;13.95;;;10.30;;
12852;SDS011;6495;51.808;7.478;2023-05-07T10:49:07;16.92;;;10.65;;
12852;SDS011;6495;51.808;7.478;2023-05-07T10:51:46;14.40;;;10.93;;
12852;SDS011;6495;51.808;7.478;2023-05-07T10:55:18;15.95;;;11.15;;
12852;SDS011;6495;51.808;7.478;2023-05-07T10:57:57;12.85;;;10.00;;
12852;SDS011;6495;51.808;7.478;2023-05-07T11:01:50;13.63;;;9.68;;
12852;SDS011;6495;51.808;7.478;2023-05-07T11:04:41;15.88;;;11.38;;
12852;SDS011;6495;51.808;7.478;2023-05-07T11:07:28;14.45;;;10.68;;
12852;SDS011;6495;51.808;7.478;2023-05-07T11:10:05;14.68;;;9.57;;
12852;SDS011;6495;51.808;7.478;2023-05-07T11:12:54;12.60;;;8.93;;
12852;SDS011;6495;51.808;7.478;2023-05-07T11:15:41;15.80;;;10.95;;
12852;SDS011;6495;51.808;7.478;2023-05-07T11:18:19;12.15;;;8.35;;
12852;SDS011;6495;51.808;7.478;2023-05-07T11:20:52;13.90;;;9.35;;
12852;SDS011;6495;51.808;7.478;2023-05-07T11:23:56;12.95;;;8.70;;
12852;SDS011;6495;51.808;7.478;2023-05-07T11:26:41;12.93;;;8.98;;
12852;SDS011;6495;51.808;7.478;2023-05-07T11:29:15;12.75;;;9.63;;
12852;SDS011;6495;51.808;7.478;2023-05-07T11:31:50;12.27;;;8.30;;
12852;SDS011;6495;51.808;7.478;2023-05-07T11:34:23;14.40;;;8.77;;
12852;SDS011;6495;51.808;7.478;2023-05-07T11:36:59;11.20;;;7.90;;
12852;SDS011;6495;51.808;7.478;2023-05-07T11:39:45;10.07;;;7.95;;
12852;SDS011;6495;51.808;7.478;2023-05-07T11:42:25;13.80;;;8.70;;
12852;SDS011;6495;51.808;7.478;2023-05-07T11:44:55;10.93;;;7.63;;
12852;SDS011;6495;51.808;7.478;2023-05-07T11:47:23;11.15;;;7.45;;
12852;SDS011;6495;51.808;7.478;2023-05-07T11:49:53;13.45;;;8.55;;
12852;SDS011;6495;51.808;7.478;2023-05-07T11:52:24;10.40;;;8.02;;
12852;SDS011;6495;51.808;7.478;2023-05-07T11:54:54;11.55;;;8.20;;
12852;SDS011;6495;51.808;7.478;2023-05-07T11:57:24;12.68;;;7.72;;
12852;SDS011;6495;51.808;7.478;2023-05-07T11:59:53;11.43;;;7.70;;
12852;SDS011;6495;51.808;7.478;2023-05-07T12:02:22;11.63;;;7.90;;
12852;SDS011;6495;51.808;7.478;2023-05-07T12:04:52;10.80;;;8.30;;
12852;SDS011;6495;51.808;7.478;2023-05-07T12:07:21;9.93;;;8.05;;
12852;SDS011;6495;51.808;7.478;2023-05-07T12:09:53;11.38;;;7.70;;
12852;SDS011;6495;51.808;7.478;2023-05-07T12:12:22;11.07;;;8.00;;
12852;SDS011;6495;51.808;7.478;2023-05-07T12:14:51;10.50;;;8.25;;
12852;SDS011;6495;51.808;7.478;2023-05-07T12:17:23;12.85;;;8.30;;
12852;SDS011;6495;51.808;7.478;2023-05-07T12:19:52;9.60;;;7.03;;
12852;SDS011;6495;51.808;7.478;2023-05-07T12:22:22;9.88;;;6.40;;
12852;SDS011;6495;51.808;7.478;2023-05-07T12:28:38;10.63;;;6.95;;
12852;SDS011;6495;51.808;7.478;2023-05-07T12:31:07;11.48;;;7.65;;
12852;SDS011;6495;51.808;7.478;2023-05-07T12:48:22;8.27;;;6.13;;
12852;SDS011;6495;51.808;7.478;2023-05-07T12:50:53;9.82;;;7.40;;
12852;SDS011;6495;51.808;7.478;2023-05-07T12:53:23;11.43;;;7.55;;
12852;SDS011;6495;51.808;7.478;2023-05-07T12:55:54;8.35;;;6.20;;
12852;SDS011;6495;51.808;7.478;2023-05-07T12:58:24;9.63;;;6.47;;
12852;SDS011;6495;51.808;7.478;2023-05-07T13:00:54;9.50;;;6.10;;
12852;SDS011;6495;51.808;7.478;2023-05-07T13:03:28;8.23;;;6.18;;
12852;SDS011;6495;51.808;7.478;2023-05-07T13:06:00;11.38;;;7.22;;
12852;SDS011;6495;51.808;7.478;2023-05-07T13:08:31;9.38;;;6.82;;
12852;SDS011;6495;51.808;7.478;2023-05-07T13:11:01;8.45;;;6.00;;
12852;SDS011;6495;51.808;7.478;2023-05-07T13:13:31;7.43;;;6.43;;
12852;SDS011;6495;51.808;7.478;2023-05-07T13:16:01;7.10;;;5.47;;
12852;SDS011;6495;51.808;7.478;2023-05-07T13:18:32;7.90;;;5.72;;
12852;SDS011;6495;51.808;7.478;2023-05-07T13:21:02;10.10;;;6.55;;
12852;SDS011;6495;51.808;7.478;2023-05-07T13:23:30;8.55;;;5.90;;
12852;SDS011;6495;51.808;7.478;2023-05-07T13:25:59;7.60;;;6.35;;
12852;SDS011;6495;51.808;7.478;2023-05-07T13:28:40;7.78;;;6.07;;
12852;SDS011;6495;51.808;7.478;2023-05-07T13:31:09;8.02;;;5.65;;
12852;SDS011;6495;51.808;7.478;2023-05-07T13:33:39;8.90;;;6.60;;
12852;SDS011;6495;51.808;7.478;2023-05-07T13:36:07;8.50;;;7.30;;
12852;SDS011;6495;51.808;7.478;2023-05-07T13:38:38;7.75;;;6.07;;
12852;SDS011;6495;51.808;7.478;2023-05-07T13:41:06;10.82;;;7.28;;
12852;SDS011;6495;51.808;7.478;2023-05-07T13:43:35;8.40;;;5.95;;
12852;SDS011;6495;51.808;7.478;2023-05-07T13:46:03;7.55;;;6.03;;
12852;SDS011;6495;51.808;7.478;2023-05-07T13:48:31;8.05;;;5.90;;
12852;SDS011;6495;51.808;7.478;2023-05-07T13:51:01;8.00;;;6.25;;
12852;SDS011;6495;51.808;7.478;2023-05-07T13:53:29;10.10;;;5.68;;
12852;SDS011;6495;51.808;7.478;2023-05-07T13:55:57;7.32;;;5.80;;
12852;SDS011;6495;51.808;7.478;2023-05-07T13:58:25;6.65;;;5.68;;
12852;SDS011;6495;51.808;7.478;2023-05-07T14:00:53;8.38;;;6.05;;
12852;SDS011;6495;51.808;7.478;2023-05-07T14:03:22;8.55;;;6.22;;
12852;SDS011;6495;51.808;7.478;2023-05-07T14:05:50;7.28;;;5.55;;
12852;SDS011;6495;51.808;7.478;2023-05-07T14:08:20;8.25;;;6.75;;
12852;SDS011;6495;51.808;7.478;2023-05-07T14:10:48;8.95;;;6.00;;
12852;SDS011;6495;51.808;7.478;2023-05-07T14:13:16;7.50;;;5.75;;
12852;SDS011;6495;51.808;7.478;2023-05-07T14:15:45;8.45;;;6.05;;
12852;SDS011;6495;51.808;7.478;2023-05-07T14:18:14;9.13;;;6.68;;
12852;SDS011;6495;51.808;7.478;2023-05-07T14:20:48;7.60;;;5.75;;
12852;SDS011;6495;51.808;7.478;2023-05-07T14:23:17;10.20;;;6.65;;
12852;SDS011;6495;51.808;7.478;2023-05-07T14:25:52;9.88;;;6.63;;
12852;SDS011;6495;51.808;7.478;2023-05-07T14:28:23;8.05;;;6.07;;
12852;SDS011;6495;51.808;7.478;2023-05-07T14:30:52;8.68;;;6.65;;
12852;SDS011;6495;51.808;7.478;2023-05-07T14:33:20;7.75;;;6.43;;
12852;SDS011;6495;51.808;7.478;2023-05-07T14:35:49;9.35;;;6.85;;
12852;SDS011;6495;51.808;7.478;2023-05-07T14:38:32;9.30;;;6.53;;
12852;SDS011;6495;51.808;7.478;2023-05-07T14:44:47;8.93;;;6.15;;
12852;SDS011;6495;51.808;7.478;2023-05-07T14:47:16;11.05;;;6.28;;
12852;SDS011;6495;51.808;7.478;2023-05-07T14:49:45;7.63;;;6.03;;
12852;SDS011;6495;51.808;7.478;2023-05-07T14:52:13;8.50;;;6.65;;
12852;SDS011;6495;51.808;7.478;2023-05-07T14:54:43;10.93;;;5.88;;
12852;SDS011;6495;51.808;7.478;2023-05-07T14:57:11;11.25;;;6.93;;
12852;SDS011;6495;51.808;7.478;2023-05-07T14:59:42;7.85;;;6.03;;
12852;SDS011;6495;51.808;7.478;2023-05-07T15:02:10;8.93;;;6.55;;
12852;SDS011;6495;51.808;7.478;2023-05-07T15:04:39;8.55;;;6.97;;
12852;SDS011;6495;51.808;7.478;2023-05-07T15:07:12;10.40;;;7.30;;
12852;SDS011;6495;51.808;7.478;2023-05-07T15:09:42;9.85;;;6.85;;
12852;SDS011;6495;51.808;7.478;2023-05-07T15:12:12;7.78;;;5.90;;
12852;SDS011;6495;51.808;7.478;2023-05-07T15:14:50;9.32;;;6.85;;
12852;SDS011;6495;51.808;7.478;2023-05-07T15:17:37;10.98;;;6.60;;
12852;SDS011;6495;51.808;7.478;2023-05-07T15:20:29;9.52;;;6.50;;
12852;SDS011;6495;51.808;7.478;2023-05-07T15:23:05;8.45;;;5.95;;
12852;SDS011;6495;51.808;7.478;2023-05-07T15:25:46;9.63;;;6.63;;
12852;SDS011;6495;51.808;7.478;2023-05-07T15:28:18;8.35;;;6.25;;
12852;SDS011;6495;51.808;7.478;2023-05-07T15:30:55;7.82;;;5.78;;
12852;SDS011;6495;51.808;7.478;2023-05-07T15:33:28;11.27;;;6.50;;
12852;SDS011;6495;51.808;7.478;2023-05-07T15:36:09;8.43;;;6.47;;
12852;SDS011;6495;51.808;7.478;2023-05-07T15:38:38;9.38;;;6.05;;
12852;SDS011;6495;51.808;7.478;2023-05-07T15:41:16;8.57;;;6.15;;
12852;SDS011;6495;51.808;7.478;2023-05-07T15:43:53;11.35;;;6.80;;
12852;SDS011;6495;51.808;7.478;2023-05-07T15:46:26;7.90;;;6.20;;
12852;SDS011;6495;51.808;7.478;2023-05-07T15:49:04;9.43;;;6.30;;
12852;SDS011;6495;51.808;7.478;2023-05-07T15:51:37;8.48;;;5.97;;